createdAt,value
2023-03-27T00:02:43.235Z,101101.22
2023-03-27T00:06:55.356Z,101122.81
2023-03-27T00:11:08.404Z,101123.44
2023-03-27T00:15:21.944Z,101135.72
2023-03-27T00:19:34.311Z,101130.59
2023-03-27T00:23:47.060Z,101147.69
2023-03-27T00:27:59.902Z,101139.72
2023-03-27T00:32:11.788Z,101143.53
2023-03-27T00:36:23.636Z,101166.44
2023-03-27T00:40:35.461Z,101152.50
2023-03-27T00:44:47.184Z,101142.53
2023-03-27T00:49:03.468Z,101165.25
2023-03-27T00:53:24.900Z,101135.34
2023-03-27T00:57:37.140Z,101154.09
2023-03-27T01:01:49.381Z,101179.47
2023-03-27T01:06:02.650Z,101168.00
2023-03-27T01:10:16.376Z,101155.72
2023-03-27T01:14:41.270Z,101198.22
2023-03-27T01:19:10.444Z,101193.53
2023-03-27T01:23:59.590Z,101201.81
2023-03-27T01:28:14.969Z,101194.00
2023-03-27T01:32:35.718Z,101198.78
2023-03-27T01:36:56.781Z,101217.34
2023-03-27T01:41:18.066Z,101236.38
2023-03-27T01:45:43.067Z,101199.03
2023-03-27T01:50:18.075Z,101216.31
2023-03-27T01:54:34.376Z,101238.16
2023-03-27T01:58:49.242Z,101222.88
2023-03-27T02:03:08.528Z,101240.34
2023-03-27T02:07:42.461Z,101250.69
2023-03-27T02:11:59.551Z,101233.09
2023-03-27T02:16:19.581Z,101238.25
2023-03-27T02:20:33.812Z,101273.97
2023-03-27T02:24:46.425Z,101266.66
2023-03-27T02:29:24.850Z,101269.00
2023-03-27T02:33:42.684Z,101286.75
2023-03-27T02:37:54.361Z,101270.94
2023-03-27T02:42:46.044Z,101261.78
2023-03-27T02:47:22.217Z,101282.19
2023-03-27T02:51:45.110Z,101296.06
2023-03-27T02:56:03.643Z,101295.06
2023-03-27T03:00:28.510Z,101296.50
2023-03-27T03:05:10.964Z,101317.22
2023-03-27T03:09:25.257Z,101325.63
2023-03-27T03:13:37.193Z,101319.09
2023-03-27T03:17:50.055Z,101322.50
2023-03-27T03:22:01.854Z,101326.13
2023-03-27T03:26:16.731Z,101333.59
2023-03-27T03:30:31.740Z,101353.31
2023-03-27T03:34:50.236Z,101331.00
2023-03-27T03:39:03.464Z,101343.88
2023-03-27T03:43:15.657Z,101345.78
2023-03-27T03:47:28.227Z,101370.03
2023-03-27T03:51:40.579Z,101380.00
2023-03-27T03:55:53.449Z,101362.75
2023-03-27T04:00:08.837Z,101403.09
2023-03-27T04:04:32.197Z,101413.09
2023-03-27T04:08:52.820Z,101412.91
2023-03-27T04:13:24.983Z,101425.19
2023-03-27T04:17:48.371Z,101444.81
2023-03-27T04:22:03.785Z,101442.16
2023-03-27T04:26:19.394Z,101431.78
2023-03-27T04:30:54.253Z,101455.44
2023-03-27T04:35:25.255Z,101455.84
2023-03-27T04:39:53.320Z,101466.03
2023-03-27T04:44:05.636Z,101459.47
2023-03-27T04:48:17.885Z,101457.53
2023-03-27T04:52:35.031Z,101465.78
2023-03-27T04:56:46.917Z,101457.22
2023-03-27T05:00:59.016Z,101466.38
2023-03-27T05:05:29.675Z,101475.59
2023-03-27T05:09:42.288Z,101474.69
2023-03-27T05:13:54.141Z,101450.97
2023-03-27T05:18:09.343Z,101459.06
2023-03-27T05:22:21.917Z,101487.69
2023-03-27T05:26:41.436Z,101484.28
2023-03-27T05:30:53.427Z,101514.81
2023-03-27T05:35:07.186Z,101508.69
2023-03-27T05:40:20.594Z,101521.72
2023-03-27T05:44:30.291Z,101534.09
2023-03-27T05:48:42.515Z,101508.19
2023-03-27T05:57:46.262Z,101541.22
2023-03-27T06:02:02.655Z,101517.19
2023-03-27T06:06:29.677Z,101514.06
2023-03-27T06:15:48.410Z,101532.84
2023-03-27T06:20:13.135Z,101524.84
2023-03-27T06:24:27.313Z,101556.44
2023-03-27T06:28:40.470Z,101527.03
2023-03-27T06:32:57.755Z,101555.53
2023-03-27T06:37:10.433Z,101559.94
2023-03-27T06:41:25.547Z,101572.94
2023-03-27T06:45:57.826Z,101573.47
2023-03-27T06:50:43.377Z,101579.53
2023-03-27T06:54:59.139Z,101586.16
2023-03-27T06:59:11.592Z,101573.47
2023-03-27T07:03:24.365Z,101575.19
2023-03-27T07:07:45.737Z,101594.13
2023-03-27T07:11:59.294Z,101594.25
2023-03-27T07:16:12.547Z,101608.09
2023-03-27T07:20:27.853Z,101619.31
2023-03-27T07:24:44.204Z,101625.19
2023-03-27T07:28:58.507Z,101619.44
2023-03-27T07:33:13.006Z,101635.41
2023-03-27T07:37:25.893Z,101627.97
2023-03-27T07:41:56.111Z,101635.28
2023-03-27T07:46:24.424Z,101642.81
2023-03-27T07:50:38.061Z,101650.47
2023-03-27T07:54:51.503Z,101654.28
2023-03-27T07:59:06.504Z,101653.84
2023-03-27T08:03:20.267Z,101657.03
2023-03-27T08:07:39.352Z,101667.44
2023-03-27T08:11:51.841Z,101665.25
2023-03-27T08:16:17.963Z,101662.63
2023-03-27T08:20:30.642Z,101673.94
2023-03-27T08:24:43.545Z,101674.63
2023-03-27T08:29:04.392Z,101672.06
2023-03-27T08:33:19.412Z,101691.59
2023-03-27T08:37:31.592Z,101699.63
2023-03-27T08:42:13.244Z,101672.91
2023-03-27T08:46:42.794Z,101678.03
2023-03-27T08:51:05.662Z,101730.84
2023-03-27T08:55:41.709Z,101734.09
2023-03-27T09:00:08.405Z,101731.03
2023-03-27T09:04:31.597Z,101742.06
2023-03-27T09:08:53.296Z,101748.72
2023-03-27T09:13:28.834Z,101765.56
2023-03-27T09:17:50.096Z,101765.53
2023-03-27T09:22:14.414Z,101760.88
2023-03-27T09:26:41.465Z,101758.19
2023-03-27T09:31:29.329Z,101744.72
2023-03-27T09:35:42.635Z,101763.50
2023-03-27T09:39:56.678Z,101743.50
2023-03-27T09:44:25.589Z,101756.31
2023-03-27T09:48:50.447Z,101758.88
2023-03-27T09:53:23.519Z,101762.81
2023-03-27T09:57:43.701Z,101758.19
2023-03-27T10:01:58.557Z,101725.19
2023-03-27T10:06:14.518Z,101771.34
2023-03-27T10:10:45.827Z,101816.09
2023-03-27T10:15:31.547Z,101814.81
2023-03-27T10:19:45.104Z,101802.81
2023-03-27T10:24:18.908Z,101812.09
2023-03-27T10:28:51.712Z,101805.22
2023-03-27T10:33:08.660Z,101784.69
2023-03-27T10:37:41.132Z,101796.84
2023-03-27T10:42:32.257Z,101796.75
2023-03-27T10:46:47.150Z,101796.03
2023-03-27T10:51:04.642Z,101800.41
2023-03-27T10:56:02.372Z,101813.44
2023-03-27T11:00:26.536Z,101812.06
2023-03-27T11:04:58.964Z,101795.91
2023-03-27T11:09:24.554Z,101804.91
2023-03-27T11:13:48.016Z,101797.34
2023-03-27T11:18:01.488Z,101794.94
2023-03-27T11:22:33.879Z,101802.13
2023-03-27T11:27:14.425Z,101796.16
2023-03-27T11:31:40.926Z,101815.94
2023-03-27T11:36:04.239Z,101801.22
2023-03-27T11:40:44.736Z,101823.88
2023-03-27T11:44:57.134Z,101818.81
2023-03-27T11:49:49.419Z,101842.81
2023-03-27T11:54:24.769Z,101849.72
2023-03-27T11:58:51.165Z,101848.81
2023-03-27T12:03:18.638Z,101849.72
2023-03-27T12:07:57.732Z,101833.16
2023-03-27T12:12:41.220Z,101860.91
2023-03-27T12:16:56.663Z,101866.41
2023-03-27T12:21:29.759Z,101866.53
2023-03-27T12:26:18.288Z,101876.53
2023-03-27T12:30:47.738Z,101866.78
2023-03-27T12:35:06.496Z,101873.31
2023-03-27T12:39:27.432Z,101878.09
2023-03-27T12:43:46.153Z,101859.06
2023-03-27T12:48:11.377Z,101855.16
2023-03-27T12:52:41.842Z,101855.91
2023-03-27T12:57:06.198Z,101842.44
2023-03-27T13:02:08.728Z,101862.13
2023-03-27T13:06:29.386Z,101857.91
2023-03-27T13:10:55.356Z,101902.41
2023-03-27T13:15:38.708Z,101890.50
2023-03-27T13:20:16.683Z,101880.97
2023-03-27T13:24:56.676Z,101859.97
2023-03-27T13:29:20.770Z,101890.66
2023-03-27T13:33:43.847Z,101888.69
2023-03-27T13:37:58.399Z,101904.53
2023-03-27T13:42:35.338Z,101896.81
2023-03-27T13:46:52.424Z,101877.53
2023-03-27T13:51:33.612Z,101923.28
2023-03-27T13:55:56.851Z,101911.25
2023-03-27T14:01:18.667Z,101926.22
2023-03-27T14:06:09.150Z,101947.28
2023-03-27T14:10:58.380Z,101925.19
2023-03-27T14:15:32.149Z,101917.75
2023-03-27T14:20:15.186Z,101929.41
2023-03-27T14:24:49.168Z,101932.63
2023-03-27T14:29:12.165Z,101919.06
2023-03-27T14:33:28.775Z,101927.59
2023-03-27T14:37:42.274Z,101926.72
2023-03-27T14:42:16.622Z,101921.50
2023-03-27T14:46:33.660Z,101921.84
2023-03-27T14:50:53.272Z,101920.00
2023-03-27T14:55:07.582Z,101927.56
2023-03-27T14:59:35.090Z,101925.81
2023-03-27T15:03:54.376Z,101944.53
2023-03-27T15:08:12.952Z,101944.75
2023-03-27T15:12:55.766Z,101943.06
2023-03-27T15:17:19.300Z,101945.66
2023-03-27T15:21:46.606Z,101953.84
2023-03-27T15:26:12.769Z,101960.22
2023-03-27T15:30:37.387Z,101988.13
2023-03-27T15:34:56.837Z,101976.91
2023-03-27T15:39:21.112Z,101961.56
2023-03-27T15:43:33.878Z,101937.06
2023-03-27T15:48:00.858Z,101977.53
2023-03-27T15:52:34.645Z,101979.03
2023-03-27T15:56:49.753Z,101968.41
2023-03-27T16:01:18.096Z,101991.50
2023-03-27T16:05:32.416Z,101991.00
2023-03-27T16:10:02.244Z,101994.19
2023-03-27T16:14:36.906Z,102001.78
2023-03-27T16:18:51.591Z,101999.78
2023-03-27T16:23:04.285Z,102001.88
2023-03-27T16:27:17.245Z,102017.78
2023-03-27T16:31:28.887Z,102015.56
2023-03-27T16:35:40.690Z,102007.78
2023-03-27T16:39:54.179Z,102005.78
2023-03-27T16:44:05.853Z,102042.31
2023-03-27T16:48:17.601Z,102045.28
2023-03-27T16:52:29.313Z,102047.44
2023-03-27T16:56:41.392Z,102026.28
2023-03-27T17:00:53.296Z,102062.75
2023-03-27T17:05:08.166Z,102040.28
2023-03-27T17:09:20.554Z,102056.19
2023-03-27T17:13:32.693Z,102057.59
2023-03-27T17:17:45.403Z,102072.00
2023-03-27T17:21:57.206Z,102072.88
2023-03-27T17:26:14.093Z,102058.41
2023-03-27T17:30:37.988Z,102068.47
2023-03-27T17:34:52.206Z,102072.88
2023-03-27T17:39:08.399Z,102102.53
2023-03-27T17:43:20.337Z,102129.09
2023-03-27T17:47:32.089Z,102117.94
2023-03-27T17:51:43.895Z,102116.28
2023-03-27T17:55:59.826Z,102105.41
2023-03-27T18:00:12.209Z,102110.59
2023-03-27T18:04:26.945Z,102131.09
2023-03-27T18:08:38.955Z,102122.41
2023-03-27T18:12:50.829Z,102127.06
2023-03-27T18:17:02.638Z,102139.22
2023-03-27T18:21:16.142Z,102120.81
2023-03-27T18:25:28.946Z,102124.41
2023-03-27T18:29:40.838Z,102137.28
2023-03-27T18:33:52.793Z,102140.06
2023-03-27T18:38:06.206Z,102160.78
2023-03-27T18:42:18.047Z,102159.22
2023-03-27T18:46:29.975Z,102150.03
2023-03-27T18:50:42.313Z,102158.19
2023-03-27T18:54:54.173Z,102157.59
2023-03-27T18:59:08.116Z,102154.94
2023-03-27T19:03:23.397Z,102163.75
2023-03-27T19:07:36.815Z,102168.34
2023-03-27T19:12:00.509Z,102169.59
2023-03-27T19:16:31.410Z,102154.50
2023-03-27T19:21:15.821Z,102162.94
2023-03-27T19:25:34.064Z,102180.75
2023-03-27T19:29:45.982Z,102187.19
2023-03-27T19:33:57.740Z,102182.44
2023-03-27T19:38:09.635Z,102190.59
2023-03-27T19:42:21.505Z,102182.34
2023-03-27T19:46:33.400Z,102156.19
2023-03-27T19:50:45.577Z,102164.56
2023-03-27T19:55:00.363Z,102178.25
2023-03-27T19:59:20.751Z,102171.25
2023-03-27T20:03:38.659Z,102203.84
2023-03-27T20:07:50.913Z,102195.47
2023-03-27T20:12:06.584Z,102192.03
2023-03-27T20:16:22.923Z,102172.00
2023-03-27T20:21:09.696Z,102172.34
2023-03-27T20:30:15.041Z,102182.38
2023-03-27T20:34:32.921Z,102170.56
2023-03-27T20:38:54.407Z,102181.88
2023-03-27T20:43:37.422Z,102201.22
2023-03-27T20:48:07.140Z,102190.06
2023-03-27T21:02:20.457Z,102221.47
2023-03-27T21:06:58.487Z,102226.22
2023-03-27T21:11:10.679Z,102223.59
2023-03-27T21:20:12.673Z,102211.06
2023-03-27T21:24:24.333Z,102207.44
2023-03-27T21:28:35.980Z,102230.78
2023-03-27T21:32:49.112Z,102224.19
2023-03-27T21:37:02.556Z,102238.50
2023-03-27T21:41:16.206Z,102238.06
2023-03-27T21:45:27.779Z,102236.53
2023-03-27T21:49:39.305Z,102221.03
2023-03-27T21:53:51.029Z,102236.13
2023-03-27T21:58:02.587Z,102221.88
2023-03-27T22:02:14.163Z,102231.09
2023-03-27T22:06:25.971Z,102249.28
2023-03-27T22:10:37.697Z,102227.06
2023-03-27T22:14:49.374Z,102248.16
2023-03-27T22:19:01.318Z,102260.72
2023-03-27T22:23:12.824Z,102253.75
2023-03-27T22:27:24.412Z,102251.53
2023-03-27T22:31:36.428Z,102268.44
2023-03-27T22:35:48.971Z,102261.84
2023-03-27T22:40:00.792Z,102260.03
2023-03-27T22:44:12.502Z,102269.81
2023-03-27T22:48:24.062Z,102275.28
2023-03-27T22:52:35.558Z,102276.38
2023-03-27T22:56:47.561Z,102290.06
2023-03-27T23:00:59.388Z,102265.84
2023-03-27T23:05:11.007Z,102285.00
2023-03-27T23:09:22.496Z,102284.56
2023-03-27T23:13:34.797Z,102281.91
2023-03-27T23:17:46.513Z,102275.56
2023-03-27T23:21:58.081Z,102291.81
2023-03-27T23:26:10.282Z,102300.63
2023-03-27T23:30:21.872Z,102292.59
2023-03-27T23:34:33.442Z,102291.91
2023-03-27T23:38:45.222Z,102299.31
2023-03-27T23:42:56.764Z,102295.13
2023-03-27T23:47:08.249Z,102298.88
2023-03-27T23:51:19.925Z,102293.56
2023-03-27T23:55:31.488Z,102293.16
2023-03-27T23:59:43.058Z,102281.78
